Time;durP1;ratioP1;P1;durP2;ratioP2;P2;SDS_P1;SDS_P2;PMS_P1;PMS_P2;Temp;Humidity;BMP_temperature;BMP_pressure;BME280_temperature;BME280_humidity;BME280_pressure;Samples;Min_cycle;Max_cycle;Signal;HPM_P1;HPM_P2
2021/03/12 00:00:24;;;;;;;0.43;0.40;;;6.50;99.90;;;;;;5000987;28;20261;-69
2021/03/12 00:02:50;;;;;;;2.40;0.87;;;6.50;99.90;;;;;;5003926;28;20241;-69
2021/03/12 00:05:17;;;;;;;2.40;0.47;;;6.40;99.90;;;;;;5021389;28;20480;-69
2021/03/12 00:07:43;;;;;;;0.70;0.50;;;6.40;99.90;;;;;;5014286;28;20834;-70
2021/03/12 00:10:17;;;;;;;0.60;0.60;;;6.40;99.90;;;;;;5031536;28;20535;-69
2021/03/12 00:12:43;;;;;;;2.27;0.80;;;6.30;99.90;;;;;;5002218;28;20220;-70
2021/03/12 00:15:12;;;;;;;2.40;0.60;;;6.30;99.90;;;;;;5032528;28;20961;-69
2021/03/12 00:17:38;;;;;;;3.17;0.90;;;6.30;99.90;;;;;;5032365;28;20458;-69
2021/03/12 00:20:07;;;;;;;0.60;0.53;;;6.30;99.90;;;;;;5014155;28;20548;-69
2021/03/12 00:22:33;;;;;;;0.70;0.60;;;6.20;99.90;;;;;;5022277;28;20896;-72
2021/03/12 00:24:59;;;;;;;0.70;0.70;;;6.20;99.90;;;;;;5005226;28;20551;-69
2021/03/12 00:27:25;;;;;;;1.40;1.03;;;6.20;99.90;;;;;;5038647;28;20538;-70
2021/03/12 00:29:50;;;;;;;0.73;0.60;;;6.20;99.90;;;;;;5006791;28;20220;-70
2021/03/12 00:32:16;;;;;;;0.60;0.47;;;6.20;99.90;;;;;;4999225;28;20217;-69
2021/03/12 00:34:42;;;;;;;2.40;0.90;;;6.10;99.90;;;;;;5021946;28;20225;-68
2021/03/12 00:37:07;;;;;;;0.70;0.60;;;6.20;99.90;;;;;;5003418;28;20221;-70
2021/03/12 00:39:43;;;;;;;1.00;0.60;;;6.20;99.90;;;;;;4993630;28;20233;-70
2021/03/12 00:42:12;;;;;;;0.90;0.70;;;6.20;99.90;;;;;;5001894;28;20225;-69
2021/03/12 00:44:38;;;;;;;2.27;0.80;;;6.20;99.90;;;;;;5010615;28;20485;-72
2021/03/12 00:47:04;;;;;;;2.30;0.60;;;6.10;99.90;;;;;;5049401;28;20220;-69
2021/03/12 00:49:30;;;;;;;2.23;0.73;;;6.20;99.90;;;;;;5017163;28;20523;-70
2021/03/12 00:51:58;;;;;;;1.00;0.70;;;6.20;99.90;;;;;;5038369;28;20227;-68
2021/03/12 00:54:26;;;;;;;2.60;1.10;;;6.20;99.90;;;;;;5009986;28;20453;-69
2021/03/12 00:57:02;;;;;;;0.53;0.53;;;6.20;99.90;;;;;;5009277;28;20461;-69
2021/03/12 00:59:27;;;;;;;0.90;0.60;;;6.20;99.90;;;;;;5001876;28;20478;-68
2021/03/12 01:01:55;;;;;;;1.10;0.90;;;6.20;99.90;;;;;;5029827;28;20505;-68
2021/03/12 01:04:21;;;;;;;1.80;0.60;;;6.10;99.90;;;;;;5032088;28;20443;-70
2021/03/12 01:06:49;;;;;;;1.03;0.80;;;6.10;99.90;;;;;;5016811;28;20728;-69
2021/03/12 01:09:15;;;;;;;1.17;0.77;;;6.10;99.90;;;;;;5015326;28;20531;-69
2021/03/12 01:11:41;;;;;;;0.60;0.53;;;6.10;99.90;;;;;;5024787;28;20224;-69
2021/03/12 01:14:45;;;;;;;0.50;0.47;;;6.10;99.90;;;;;;4996823;28;20468;-68
2021/03/12 01:17:11;;;;;;;0.50;0.50;;;6.00;99.90;;;;;;5009541;28;20449;-70
2021/03/12 01:19:37;;;;;;;0.57;0.50;;;6.00;99.90;;;;;;4960619;28;20487;-71
2021/03/12 01:22:05;;;;;;;2.10;0.70;;;5.90;99.90;;;;;;4962418;28;20225;-69
2021/03/12 01:24:32;;;;;;;0.97;0.60;;;5.90;99.90;;;;;;5021657;28;20558;-69
2021/03/12 01:27:04;;;;;;;0.63;0.37;;;5.90;99.90;;;;;;5013287;28;20455;-69
2021/03/12 01:29:30;;;;;;;1.30;0.57;;;5.90;99.90;;;;;;5029066;28;20945;-68
2021/03/12 01:32:03;;;;;;;0.53;0.43;;;5.80;99.90;;;;;;4998297;28;20476;-69
2021/03/12 01:34:34;;;;;;;2.17;0.60;;;5.80;99.90;;;;;;4998010;28;20978;-68
2021/03/12 01:37:01;;;;;;;0.50;0.43;;;5.90;99.90;;;;;;5019525;28;20528;-69
2021/03/12 01:39:33;;;;;;;0.60;0.60;;;5.80;99.90;;;;;;5009251;28;20959;-70
2021/03/12 01:41:59;;;;;;;0.90;0.87;;;5.80;99.90;;;;;;5009485;28;20473;-68
2021/03/12 01:44:30;;;;;;;0.47;0.43;;;5.80;99.90;;;;;;4993538;28;20491;-70
2021/03/12 01:46:56;;;;;;;1.70;0.63;;;5.80;99.90;;;;;;5009227;28;20477;-70
2021/03/12 01:49:24;;;;;;;0.63;0.50;;;5.80;99.90;;;;;;4992546;28;20214;-68
2021/03/12 01:51:51;;;;;;;0.60;0.50;;;5.70;99.90;;;;;;4992834;28;20456;-68
2021/03/12 01:54:17;;;;;;;2.10;0.40;;;5.70;99.90;;;;;;4992973;28;20256;-67
2021/03/12 01:56:45;;;;;;;1.17;0.50;;;5.70;99.90;;;;;;4993451;28;20484;-67
2021/03/12 01:59:22;;;;;;;1.23;0.90;;;5.80;99.90;;;;;;4993658;28;20534;-70
2021/03/12 02:01:57;;;;;;;0.87;0.50;;;5.80;99.90;;;;;;4996852;28;20458;-70
2021/03/12 02:04:42;;;;;;;0.40;0.40;;;5.70;99.90;;;;;;5016661;28;20898;-68
2021/03/12 02:07:13;;;;;;;0.50;0.40;;;5.80;99.90;;;;;;4996379;28;21026;-68
2021/03/12 02:09:47;;;;;;;0.40;0.40;;;5.70;99.90;;;;;;5005782;28;20442;-69
2021/03/12 02:12:32;;;;;;;0.60;0.47;;;5.70;99.90;;;;;;5004768;28;20456;-69
2021/03/12 02:15:10;;;;;;;0.60;0.50;;;5.70;99.90;;;;;;5027666;28;20455;-70
2021/03/12 02:18:15;;;;;;;0.50;0.40;;;5.70;99.90;;;;;;5028143;28;20464;-69
2021/03/12 02:21:04;;;;;;;0.80;0.60;;;5.70;99.90;;;;;;4977998;28;20994;-68
2021/03/12 02:23:49;;;;;;;4.20;0.70;;;5.70;99.90;;;;;;4988406;28;20970;-69
2021/03/12 02:26:23;;;;;;;2.30;0.50;;;5.70;99.90;;;;;;5036562;28;20459;-68
2021/03/12 02:28:52;;;;;;;0.63;0.43;;;5.60;99.90;;;;;;5031376;28;20469;-67
2021/03/12 02:31:21;;;;;;;0.80;0.50;;;5.60;99.90;;;;;;5047638;28;20466;-68
2021/03/12 02:33:49;;;;;;;1.03;0.50;;;5.60;99.90;;;;;;5015980;28;20451;-68
2021/03/12 02:36:22;;;;;;;0.60;0.60;;;5.60;99.90;;;;;;5012936;28;20455;-67
2021/03/12 02:38:57;;;;;;;1.23;0.70;;;5.60;99.90;;;;;;5028280;28;20458;-69
2021/03/12 02:41:25;;;;;;;0.97;0.70;;;5.60;99.90;;;;;;5031851;28;20459;-70
2021/03/12 02:43:54;;;;;;;1.37;1.27;;;5.50;99.90;;;;;;5019365;28;20443;-70
2021/03/12 02:46:27;;;;;;;4.00;0.70;;;5.50;99.90;;;;;;5019178;28;20468;-70
2021/03/12 02:48:57;;;;;;;0.87;0.50;;;5.50;99.90;;;;;;5003488;28;20452;-70
2021/03/12 02:51:25;;;;;;;0.60;0.50;;;5.50;99.90;;;;;;5018293;28;20469;-70
2021/03/12 02:53:52;;;;;;;5.20;0.80;;;5.50;99.90;;;;;;5035303;28;20479;-70
2021/03/12 02:56:29;;;;;;;0.67;0.60;;;5.50;99.90;;;;;;5005026;28;20522;-69
2021/03/12 02:58:55;;;;;;;1.47;0.50;;;5.40;99.90;;;;;;5034833;28;20783;-70
2021/03/12 03:01:52;;;;;;;0.60;0.40;;;5.40;99.90;;;;;;5004138;28;20462;-69
2021/03/12 03:04:31;;;;;;;2.20;1.00;;;5.40;99.90;;;;;;5020092;28;20523;-69
2021/03/12 03:07:11;;;;;;;1.90;0.77;;;5.40;99.90;;;;;;5034580;28;20459;-69
2021/03/12 03:09:39;;;;;;;1.80;0.63;;;5.40;99.90;;;;;;5018413;28;20458;-70
2021/03/12 03:12:07;;;;;;;0.40;0.40;;;5.40;99.90;;;;;;5017666;28;20966;-69
2021/03/12 03:14:33;;;;;;;0.50;0.50;;;5.40;99.90;;;;;;5018456;28;20493;-70
2021/03/12 03:17:04;;;;;;;0.40;0.33;;;5.40;99.90;;;;;;5018423;28;20503;-69
2021/03/12 03:19:31;;;;;;;0.60;0.40;;;5.40;99.90;;;;;;5018053;28;20459;-69
2021/03/12 03:21:59;;;;;;;0.97;0.73;;;5.30;99.90;;;;;;4998618;28;20475;-70
2021/03/12 03:24:25;;;;;;;1.87;0.90;;;5.30;99.90;;;;;;5053275;28;20439;-70
2021/03/12 03:26:51;;;;;;;2.03;0.80;;;5.30;99.90;;;;;;5031427;28;20850;-70
2021/03/12 03:29:17;;;;;;;4.90;1.00;;;5.30;99.90;;;;;;5018643;28;20457;-70
2021/03/12 03:31:44;;;;;;;1.23;0.37;;;5.30;99.90;;;;;;5037718;28;20451;-70
2021/03/12 03:34:10;;;;;;;3.50;0.50;;;5.30;99.90;;;;;;5053967;28;20622;-70
2021/03/12 03:36:36;;;;;;;0.77;0.63;;;5.30;99.90;;;;;;5015375;28;20456;-70
2021/03/12 03:39:02;;;;;;;0.50;0.40;;;5.30;99.90;;;;;;5034040;28;20693;-69
2021/03/12 03:41:29;;;;;;;0.90;0.53;;;5.20;99.90;;;;;;5017666;28;20300;-70
2021/03/12 03:43:56;;;;;;;0.77;0.73;;;5.20;99.90;;;;;;5018166;28;20455;-70
2021/03/12 03:46:29;;;;;;;0.50;0.50;;;5.20;99.90;;;;;;5034305;28;20463;-69
2021/03/12 03:48:57;;;;;;;3.03;1.00;;;5.20;99.90;;;;;;5001927;28;20456;-69
2021/03/12 03:51:37;;;;;;;1.00;0.67;;;5.20;99.90;;;;;;5033687;28;20491;-70
2021/03/12 03:54:05;;;;;;;0.70;0.40;;;5.10;99.90;;;;;;5013666;28;20947;-70
2021/03/12 03:56:34;;;;;;;2.00;0.60;;;5.10;99.90;;;;;;5014877;28;20467;-70
2021/03/12 03:59:00;;;;;;;0.70;0.43;;;5.10;99.90;;;;;;5030671;28;21021;-70
2021/03/12 04:01:30;;;;;;;2.13;0.80;;;5.00;99.90;;;;;;5030897;28;20467;-68
2021/03/12 04:03:58;;;;;;;1.23;0.50;;;5.00;99.90;;;;;;5015116;28;20452;-70
2021/03/12 04:06:28;;;;;;;1.47;0.60;;;5.10;99.90;;;;;;5014177;28;20467;-69
2021/03/12 04:08:57;;;;;;;2.10;1.03;;;5.00;99.90;;;;;;5014593;28;20459;-70
2021/03/12 04:11:23;;;;;;;3.37;0.83;;;5.00;99.90;;;;;;5013671;28;20536;-69
2021/03/12 04:13:53;;;;;;;0.50;0.40;;;5.10;99.90;;;;;;5030917;28;20542;-69
2021/03/12 04:16:22;;;;;;;2.73;0.87;;;5.10;99.90;;;;;;5009383;28;20522;-69
2021/03/12 04:18:49;;;;;;;3.40;0.50;;;5.10;99.90;;;;;;4994598;28;20460;-69
2021/03/12 04:21:17;;;;;;;0.40;0.40;;;5.00;99.90;;;;;;4994016;28;20460;-69
2021/03/12 04:23:45;;;;;;;1.80;1.23;;;5.00;99.90;;;;;;5016584;28;20448;-69
2021/03/12 04:26:12;;;;;;;1.13;0.70;;;5.00;99.90;;;;;;5019532;28;20548;-69
2021/03/12 04:28:39;;;;;;;2.43;0.63;;;5.00;99.90;;;;;;4997908;28;20451;-70
2021/03/12 04:31:06;;;;;;;0.60;0.50;;;5.00;99.90;;;;;;5028452;28;20469;-69
2021/03/12 04:33:35;;;;;;;1.53;0.53;;;5.00;99.90;;;;;;5050322;28;20455;-69
2021/03/12 04:36:01;;;;;;;0.50;0.50;;;5.00;99.90;;;;;;5032541;28;20459;-70
2021/03/12 04:38:28;;;;;;;0.60;0.60;;;5.00;99.90;;;;;;4997974;28;20455;-70
2021/03/12 04:40:54;;;;;;;1.60;0.93;;;5.00;99.90;;;;;;5013890;28;20966;-69
2021/03/12 04:43:24;;;;;;;1.60;0.90;;;5.00;99.90;;;;;;5016969;28;20536;-69
2021/03/12 04:45:51;;;;;;;0.90;0.70;;;5.00;99.90;;;;;;5018226;28;20517;-69
2021/03/12 04:48:18;;;;;;;1.20;0.70;;;5.00;99.90;;;;;;4996338;28;20531;-69
2021/03/12 04:50:46;;;;;;;1.73;0.83;;;5.00;99.90;;;;;;5013271;28;20232;-69
2021/03/12 04:53:12;;;;;;;0.70;0.70;;;5.00;99.90;;;;;;4996226;28;20463;-69
2021/03/12 04:55:37;;;;;;;1.10;0.77;;;4.90;99.90;;;;;;5013437;28;20502;-70
2021/03/12 04:58:04;;;;;;;1.23;0.53;;;4.90;99.90;;;;;;4996191;28;20456;-69
2021/03/12 05:00:31;;;;;;;0.77;0.77;;;4.90;99.90;;;;;;5012197;28;20453;-69
2021/03/12 05:03:10;;;;;;;1.23;0.53;;;4.90;99.90;;;;;;4999565;28;20460;-69
2021/03/12 05:05:40;;;;;;;4.90;1.00;;;4.90;99.90;;;;;;5013398;28;20468;-69
2021/03/12 05:08:10;;;;;;;0.53;0.53;;;4.90;99.90;;;;;;5012000;28;20456;-69
2021/03/12 05:11:02;;;;;;;1.33;1.10;;;4.90;99.90;;;;;;4998385;28;20455;-69
2021/03/12 05:13:35;;;;;;;4.70;1.00;;;4.90;99.90;;;;;;5009087;28;20445;-69
2021/03/12 05:16:03;;;;;;;2.20;0.87;;;4.80;99.90;;;;;;5008794;28;20459;-69
2021/03/12 05:18:29;;;;;;;2.40;0.90;;;4.80;99.90;;;;;;5012540;28;20444;-69
2021/03/12 05:20:57;;;;;;;3.17;0.87;;;4.90;99.90;;;;;;5012625;28;20460;-69
2021/03/12 05:23:24;;;;;;;5.73;1.23;;;4.80;99.90;;;;;;5020282;28;20448;-68
2021/03/12 05:25:50;;;;;;;4.10;1.00;;;4.80;99.90;;;;;;5034145;28;20551;-69
2021/03/12 05:28:16;;;;;;;2.47;1.73;;;4.80;99.90;;;;;;5011668;28;20538;-68
2021/03/12 05:30:42;;;;;;;1.00;0.80;;;4.80;99.90;;;;;;5016016;28;20530;-68
2021/03/12 05:33:08;;;;;;;1.00;0.90;;;4.80;99.90;;;;;;5048620;28;20232;-68
2021/03/12 05:35:34;;;;;;;4.30;1.00;;;4.80;99.90;;;;;;5047899;28;20462;-67
2021/03/12 05:38:00;;;;;;;1.20;0.90;;;4.80;99.90;;;;;;5029421;28;20762;-68
2021/03/12 05:40:30;;;;;;;2.07;1.00;;;4.90;99.90;;;;;;5027676;28;20999;-67
2021/03/12 05:42:56;;;;;;;4.07;1.67;;;4.90;99.90;;;;;;5027587;28;20462;-67
2021/03/12 05:45:22;;;;;;;1.60;1.50;;;4.80;99.90;;;;;;5010344;28;20502;-68
2021/03/12 05:48:00;;;;;;;1.43;1.33;;;4.80;99.90;;;;;;5022577;28;20511;-68
2021/03/12 05:50:26;;;;;;;0.97;0.97;;;4.80;99.90;;;;;;5026996;28;20462;-69
2021/03/12 05:52:53;;;;;;;1.30;1.20;;;4.80;99.90;;;;;;4991692;28;20460;-68
2021/03/12 05:55:22;;;;;;;2.60;1.40;;;4.80;99.90;;;;;;5018588;28;20462;-70
2021/03/12 05:57:48;;;;;;;1.90;0.97;;;4.80;99.90;;;;;;5005263;28;20539;-69
2021/03/12 06:00:16;;;;;;;0.40;0.30;;;4.80;99.90;;;;;;4989935;28;20506;-68
2021/03/12 06:02:50;;;;;;;1.73;0.70;;;4.80;99.90;;;;;;4990076;28;20464;-68
2021/03/12 06:05:49;;;;;;;0.97;0.90;;;4.80;99.90;;;;;;4996944;28;20472;-68
2021/03/12 06:08:18;;;;;;;3.27;1.30;;;4.80;99.90;;;;;;5024996;28;20506;-69
2021/03/12 06:10:45;;;;;;;1.40;0.73;;;4.80;99.90;;;;;;5017208;28;20453;-69
2021/03/12 06:13:16;;;;;;;1.13;1.03;;;4.80;99.90;;;;;;5017998;28;20540;-68
2021/03/12 06:15:45;;;;;;;1.50;1.03;;;4.80;99.90;;;;;;5017495;28;20503;-69
2021/03/12 06:18:24;;;;;;;1.70;1.20;;;4.80;99.90;;;;;;4994965;28;20481;-69
2021/03/12 06:20:58;;;;;;;0.83;0.80;;;4.80;99.90;;;;;;5011396;28;20873;-70
2021/03/12 06:23:36;;;;;;;4.83;1.53;;;4.80;99.90;;;;;;5006189;28;20451;-69
2021/03/12 06:26:11;;;;;;;2.63;1.20;;;4.80;99.90;;;;;;4995689;28;20232;-69
2021/03/12 06:29:05;;;;;;;1.10;1.00;;;4.90;99.90;;;;;;4986090;28;20463;-69
2021/03/12 06:31:52;;;;;;;5.40;1.37;;;4.90;99.90;;;;;;5029630;28;20456;-69
2021/03/12 06:34:59;;;;;;;0.90;0.70;;;4.90;99.90;;;;;;5046666;28;20466;-69
2021/03/12 06:37:37;;;;;;;1.90;0.70;;;4.90;99.90;;;;;;5025616;28;20455;-67
2021/03/12 06:40:28;;;;;;;4.47;1.30;;;4.90;99.90;;;;;;5006442;28;20513;-68
2021/03/12 06:43:01;;;;;;;1.67;1.00;;;5.00;99.90;;;;;;4976771;28;20463;-68
2021/03/12 06:45:28;;;;;;;1.47;0.87;;;5.00;99.90;;;;;;5003029;28;20463;-68
2021/03/12 06:48:18;;;;;;;8.60;1.13;;;5.00;99.90;;;;;;4991970;28;20225;-68
2021/03/12 06:51:09;;;;;;;6.00;1.00;;;5.10;99.90;;;;;;5010842;28;20484;-67
2021/03/12 06:53:40;;;;;;;2.33;1.00;;;5.10;99.90;;;;;;5028122;28;20905;-67
2021/03/12 06:56:09;;;;;;;1.00;0.83;;;5.20;99.90;;;;;;5011504;28;20486;-68
2021/03/12 06:59:03;;;;;;;1.17;0.90;;;5.20;99.90;;;;;;5028211;28;20466;-68
2021/03/12 07:02:27;;;;;;;4.13;1.50;;;5.30;99.90;;;;;;5027689;28;20466;-68
2021/03/12 07:04:55;;;;;;;6.73;1.20;;;5.30;99.90;;;;;;5011384;28;20466;-69
2021/03/12 07:07:42;;;;;;;1.40;1.00;;;5.40;99.90;;;;;;5022160;28;20491;-68
2021/03/12 07:10:37;;;;;;;0.70;0.70;;;5.50;99.90;;;;;;5013160;28;20463;-68
2021/03/12 07:13:16;;;;;;;1.17;0.80;;;5.50;99.90;;;;;;5025784;28;20461;-68
2021/03/12 07:15:45;;;;;;;0.80;0.80;;;5.60;99.90;;;;;;4984082;28;20445;-68
2021/03/12 07:18:22;;;;;;;1.13;0.80;;;5.60;99.90;;;;;;5024223;28;20432;-68
2021/03/12 07:20:52;;;;;;;1.53;0.90;;;5.70;99.90;;;;;;4976590;28;20441;-68
2021/03/12 07:23:20;;;;;;;1.47;1.07;;;5.70;99.90;;;;;;5004564;28;20470;-68
2021/03/12 07:25:50;;;;;;;8.07;2.80;;;5.80;99.90;;;;;;5000067;28;20550;-69
2021/03/12 07:28:18;;;;;;;11.93;4.83;;;5.80;99.90;;;;;;5030466;28;20931;-68
2021/03/12 07:31:11;;;;;;;3.13;2.20;;;5.90;99.90;;;;;;5003034;28;20517;-69
2021/03/12 07:33:50;;;;;;;2.03;1.10;;;5.90;99.90;;;;;;5015472;28;20451;-69
2021/03/12 07:36:24;;;;;;;0.97;0.97;;;6.00;99.90;;;;;;5030648;28;20471;-67
2021/03/12 07:39:03;;;;;;;3.50;1.10;;;6.00;99.90;;;;;;5015336;28;20470;-69
2021/03/12 07:41:29;;;;;;;2.30;1.30;;;6.10;99.90;;;;;;5030695;28;20525;-68
2021/03/12 07:44:16;;;;;;;1.60;1.37;;;6.10;99.90;;;;;;5001661;28;20997;-68
2021/03/12 07:46:58;;;;;;;4.57;1.70;;;6.20;99.90;;;;;;5031042;28;20459;-68
2021/03/12 07:49:30;;;;;;;2.20;1.77;;;6.40;99.90;;;;;;4992210;28;20448;-69
2021/03/12 07:52:04;;;;;;;2.03;1.70;;;6.40;99.90;;;;;;5018756;28;20452;-68
2021/03/12 07:54:39;;;;;;;1.40;1.30;;;6.50;99.90;;;;;;5026900;28;20477;-69
2021/03/12 07:57:15;;;;;;;1.03;1.03;;;6.50;99.90;;;;;;5029962;28;20480;-68
2021/03/12 07:59:48;;;;;;;1.23;1.13;;;6.60;99.90;;;;;;4996321;28;20471;-70
2021/03/12 08:02:54;;;;;;;1.37;1.27;;;6.70;99.90;;;;;;5028008;28;20458;-68
2021/03/12 08:05:41;;;;;;;1.00;0.90;;;6.70;99.90;;;;;;5029435;28;20559;-69
2021/03/12 08:08:36;;;;;;;1.17;1.00;;;6.80;99.90;;;;;;5029178;28;20471;-68
2021/03/12 08:11:22;;;;;;;1.40;1.23;;;6.90;99.90;;;;;;5014715;28;20522;-70
2021/03/12 08:14:10;;;;;;;1.03;1.00;;;7.00;99.90;;;;;;5030904;28;20456;-68
2021/03/12 08:17:03;;;;;;;2.53;1.27;;;7.10;99.90;;;;;;5030217;28;20917;-67
2021/03/12 08:19:39;;;;;;;1.00;0.80;;;7.20;99.90;;;;;;5029865;28;20444;-67
2021/03/12 08:22:42;;;;;;;0.77;0.77;;;7.30;99.90;;;;;;5013157;28;20447;-67
2021/03/12 08:25:14;;;;;;;1.07;0.97;;;7.40;99.90;;;;;;5030146;28;20497;-68
2021/03/12 08:28:01;;;;;;;1.30;0.83;;;7.50;99.90;;;;;;5028143;28;20456;-68
2021/03/12 08:30:53;;;;;;;2.37;1.60;;;7.60;99.90;;;;;;5014914;28;20505;-68
2021/03/12 08:33:40;;;;;;;2.80;1.53;;;7.60;99.90;;;;;;5023090;28;20506;-69
2021/03/12 08:36:25;;;;;;;1.90;1.67;;;7.70;99.90;;;;;;5024497;28;20460;-68
2021/03/12 08:39:26;;;;;;;2.40;1.70;;;7.80;99.90;;;;;;5006498;28;20531;-68
2021/03/12 08:42:17;;;;;;;2.47;1.43;;;7.90;99.90;;;;;;4990345;28;20589;-69
2021/03/12 08:45:06;;;;;;;1.93;1.50;;;8.10;99.90;;;;;;5029038;28;20894;-70
2021/03/12 08:47:41;;;;;;;3.67;1.27;;;8.30;99.90;;;;;;4993691;28;20493;-68
2021/03/12 08:50:08;;;;;;;1.37;1.07;;;8.90;99.90;;;;;;4995898;28;20452;-68
2021/03/12 08:52:46;;;;;;;6.50;1.40;;;8.60;99.90;;;;;;5014242;28;20225;-68
2021/03/12 08:55:36;;;;;;;1.17;1.07;;;8.30;99.90;;;;;;5007885;28;21050;-68
2021/03/12 08:58:16;;;;;;;1.33;0.87;;;8.20;99.90;;;;;;5008745;28;20532;-70
2021/03/12 09:00:50;;;;;;;1.07;0.97;;;8.20;99.90;;;;;;4993734;28;20524;-72
2021/03/12 09:03:30;;;;;;;0.67;0.67;;;8.20;99.90;;;;;;4995249;28;20866;-69
2021/03/12 09:06:19;;;;;;;0.80;0.80;;;8.30;99.90;;;;;;4999522;28;20468;-71
2021/03/12 09:09:09;;;;;;;0.93;0.60;;;8.30;99.90;;;;;;5028227;28;20480;-70
2021/03/12 09:11:59;;;;;;;2.80;1.00;;;8.40;99.90;;;;;;5014148;28;20460;-71
2021/03/12 09:14:42;;;;;;;0.93;0.93;;;8.50;99.90;;;;;;5014055;28;20509;-70
2021/03/12 09:17:10;;;;;;;1.07;0.90;;;8.50;99.90;;;;;;5011728;28;20459;-70
2021/03/12 09:19:38;;;;;;;1.70;1.60;;;8.60;99.90;;;;;;5011391;28;20455;-70
2021/03/12 09:22:11;;;;;;;1.67;1.40;;;8.60;99.90;;;;;;5009909;28;20539;-70
2021/03/12 09:24:55;;;;;;;0.90;0.80;;;8.70;99.90;;;;;;4976680;28;20455;-71
2021/03/12 09:27:41;;;;;;;5.63;1.43;;;8.70;99.90;;;;;;5018016;28;20452;-74
2021/03/12 09:30:28;;;;;;;1.33;1.00;;;8.80;99.90;;;;;;5017845;28;20451;-71
2021/03/12 09:33:06;;;;;;;0.70;0.70;;;8.90;99.90;;;;;;5022414;28;20535;-70
2021/03/12 09:35:40;;;;;;;5.20;2.37;;;9.00;99.90;;;;;;4999838;28;20490;-71
2021/03/12 09:38:08;;;;;;;2.20;1.97;;;9.00;99.90;;;;;;5014946;28;21032;-70
2021/03/12 09:40:41;;;;;;;0.80;0.80;;;9.00;99.90;;;;;;4986568;28;20483;-70
2021/03/12 09:43:30;;;;;;;1.93;1.00;;;9.00;99.90;;;;;;5008631;28;20461;-70
2021/03/12 09:46:03;;;;;;;1.50;1.20;;;9.00;99.90;;;;;;4989763;28;20912;-70
2021/03/12 09:48:39;;;;;;;2.03;1.03;;;9.00;99.90;;;;;;4991016;28;20468;-69
2021/03/12 09:51:13;;;;;;;2.70;1.00;;;9.10;99.90;;;;;;5004395;28;20460;-69
2021/03/12 09:53:42;;;;;;;1.33;0.90;;;9.10;99.90;;;;;;4989717;28;20457;-70
2021/03/12 09:56:13;;;;;;;1.83;1.33;;;9.10;99.90;;;;;;4989424;28;20900;-72
2021/03/12 09:58:45;;;;;;;3.10;1.47;;;9.10;99.90;;;;;;5015904;28;20535;-72
2021/03/12 10:01:42;;;;;;;0.50;0.40;;;9.20;99.90;;;;;;4983974;28;20461;-70
2021/03/12 10:04:34;;;;;;;1.53;0.90;;;9.20;99.90;;;;;;5019835;28;20877;-72
2021/03/12 10:07:16;;;;;;;0.77;0.77;;;9.20;99.90;;;;;;5005232;28;20457;-71
2021/03/12 10:09:47;;;;;;;1.70;0.90;;;9.30;99.90;;;;;;5005668;28;20499;-73
2021/03/12 10:12:29;;;;;;;1.37;0.90;;;9.40;99.90;;;;;;5020975;28;20436;-72
2021/03/12 10:15:29;;;;;;;0.87;0.73;;;9.50;99.90;;;;;;4990110;28;20453;-71
2021/03/12 10:18:05;;;;;;;1.90;0.80;;;9.40;99.90;;;;;;4993313;28;20451;-70
2021/03/12 10:20:36;;;;;;;2.30;1.07;;;9.40;99.90;;;;;;4992903;28;20453;-70
2021/03/12 10:23:11;;;;;;;1.90;1.17;;;9.40;99.90;;;;;;5031917;28;20455;-71
2021/03/12 10:25:38;;;;;;;1.00;0.87;;;9.30;99.90;;;;;;5009744;28;20471;-70
2021/03/12 10:28:11;;;;;;;2.40;1.30;;;9.30;99.90;;;;;;5022700;28;20460;-71
2021/03/12 10:30:42;;;;;;;3.63;1.47;;;9.30;99.90;;;;;;5004810;28;20460;-70
2021/03/12 10:33:17;;;;;;;2.67;1.40;;;9.30;99.90;;;;;;4993124;28;20464;-69
2021/03/12 10:35:47;;;;;;;1.50;1.30;;;9.20;99.90;;;;;;5009975;28;20538;-72
2021/03/12 10:38:21;;;;;;;1.80;0.70;;;9.20;99.90;;;;;;5020713;28;20476;-69
2021/03/12 10:40:48;;;;;;;1.00;0.90;;;9.20;99.90;;;;;;5027224;28;20460;-70
2021/03/12 10:43:15;;;;;;;1.33;1.27;;;9.20;99.90;;;;;;5010024;28;20470;-72
2021/03/12 10:45:50;;;;;;;6.30;3.67;;;9.30;99.90;;;;;;5027023;28;20471;-70
2021/03/12 10:48:17;;;;;;;5.70;2.60;;;9.40;99.90;;;;;;4993148;28;20463;-72
2021/03/12 10:50:51;;;;;;;2.53;0.90;;;9.50;99.90;;;;;;5009029;28;20968;-74
2021/03/12 10:53:16;;;;;;;3.07;1.10;;;9.60;99.90;;;;;;5025084;28;20523;-72
2021/03/12 10:55:51;;;;;;;1.17;0.80;;;9.70;99.90;;;;;;5025963;28;20488;-72
2021/03/12 10:58:34;;;;;;;2.70;0.90;;;9.90;99.90;;;;;;5025579;28;20244;-72
2021/03/12 11:01:12;;;;;;;1.30;0.90;;;10.00;99.90;;;;;;5025719;28;20460;-70
2021/03/12 11:03:40;;;;;;;1.50;1.27;;;10.10;99.90;;;;;;5031624;28;20874;-69
2021/03/12 11:06:06;;;;;;;2.97;1.00;;;10.30;99.90;;;;;;5008119;28;20457;-70
2021/03/12 11:08:32;;;;;;;2.00;0.83;;;10.40;99.90;;;;;;5030492;28;20510;-70
2021/03/12 11:10:59;;;;;;;2.50;1.03;;;10.50;99.90;;;;;;5030231;28;20973;-70
2021/03/12 11:13:25;;;;;;;9.30;1.40;;;10.60;99.90;;;;;;5003903;28;20517;-71
2021/03/12 11:15:50;;;;;;;8.13;2.13;;;10.70;99.90;;;;;;4997700;28;20452;-70
2021/03/12 11:18:17;;;;;;;2.27;1.20;;;10.80;99.90;;;;;;4997243;28;20228;-70
2021/03/12 11:20:44;;;;;;;1.60;1.10;;;10.80;99.90;;;;;;5030997;28;20228;-70
2021/03/12 11:23:10;;;;;;;1.10;1.00;;;10.70;99.90;;;;;;5037260;28;20463;-71
2021/03/12 11:25:37;;;;;;;2.80;1.33;;;10.60;99.90;;;;;;5040986;28;20475;-71
2021/03/12 11:28:03;;;;;;;2.93;1.30;;;10.50;99.90;;;;;;5011187;28;20563;-70
2021/03/12 11:30:29;;;;;;;2.60;1.30;;;10.50;99.90;;;;;;5007211;28;20465;-69
2021/03/12 11:32:55;;;;;;;3.77;2.40;;;10.40;99.90;;;;;;5015103;28;20470;-70
2021/03/12 11:35:23;;;;;;;3.40;2.90;;;10.40;99.90;;;;;;5019203;28;20467;-71
2021/03/12 11:37:48;;;;;;;8.97;5.57;;;10.40;99.90;;;;;;5011939;28;20308;-70
2021/03/12 11:40:15;;;;;;;6.40;4.87;;;10.30;99.90;;;;;;4994467;28;20538;-73
2021/03/12 11:42:41;;;;;;;10.60;6.00;;;10.00;99.90;;;;;;5027478;28;20271;-71
2021/03/12 11:45:09;;;;;;;17.87;10.80;;;9.90;99.90;;;;;;5010740;28;20525;-71
2021/03/12 11:47:35;;;;;;;28.73;17.87;;;9.90;99.90;;;;;;5011270;28;20455;-71
2021/03/12 11:50:04;;;;;;;28.37;13.70;;;10.00;99.90;;;;;;4994246;28;21122;-71
2021/03/12 11:52:29;;;;;;;8.63;5.37;;;10.10;99.90;;;;;;4994789;28;20467;-69
2021/03/12 11:54:59;;;;;;;10.10;6.03;;;10.20;99.90;;;;;;5007793;28;20464;-70
2021/03/12 11:57:25;;;;;;;4.53;3.80;;;10.30;99.90;;;;;;5008608;28;20226;-72
2021/03/12 11:59:51;;;;;;;1.77;1.67;;;10.40;99.90;;;;;;5007267;28;20456;-70
2021/03/12 12:02:18;;;;;;;7.47;3.10;;;10.50;99.90;;;;;;4991140;28;20469;-71
2021/03/12 12:04:46;;;;;;;5.03;3.70;;;10.60;99.90;;;;;;4991259;28;20457;-70
2021/03/12 12:07:13;;;;;;;9.97;4.17;;;10.80;99.90;;;;;;4991045;28;20488;-71
2021/03/12 12:09:42;;;;;;;5.97;3.30;;;10.90;99.90;;;;;;5007106;28;20464;-71
2021/03/12 12:12:09;;;;;;;4.63;1.53;;;10.90;99.90;;;;;;5026861;28;20998;-70
2021/03/12 12:14:36;;;;;;;1.70;1.30;;;11.00;99.90;;;;;;4993697;28;20455;-71
2021/03/12 12:17:02;;;;;;;1.30;1.30;;;10.90;99.90;;;;;;4994149;28;20546;-73
2021/03/12 12:19:29;;;;;;;2.00;1.90;;;10.80;99.90;;;;;;4994353;28;20804;-70
2021/03/12 12:21:54;;;;;;;3.03;2.30;;;10.70;99.90;;;;;;5010306;28;20459;-71
2021/03/12 12:24:20;;;;;;;5.57;4.10;;;10.80;99.90;;;;;;5028960;28;20447;-70
2021/03/12 12:26:46;;;;;;;6.93;4.20;;;10.80;99.90;;;;;;5003321;28;20230;-72
2021/03/12 12:29:11;;;;;;;11.70;7.20;;;10.80;99.90;;;;;;5031470;28;20220;-70
2021/03/12 12:31:38;;;;;;;10.23;7.47;;;10.80;99.90;;;;;;5032173;28;20232;-68
2021/03/12 12:34:04;;;;;;;13.20;8.70;;;10.80;99.90;;;;;;5049155;28;20224;-70
2021/03/12 12:36:30;;;;;;;13.17;9.00;;;10.70;99.90;;;;;;5043688;28;20479;-72
2021/03/12 12:38:57;;;;;;;5.27;4.77;;;10.60;99.90;;;;;;5029264;28;20491;-71
2021/03/12 12:41:23;;;;;;;3.70;2.57;;;10.50;99.90;;;;;;5011888;28;20455;-71
2021/03/12 12:43:49;;;;;;;4.70;2.60;;;10.40;99.90;;;;;;5028172;28;20842;-71
2021/03/12 12:46:16;;;;;;;2.73;1.97;;;10.30;99.90;;;;;;5012214;28;20530;-70
2021/03/12 12:48:41;;;;;;;2.87;1.87;;;10.30;99.90;;;;;;5012780;28;20455;-70
2021/03/12 12:51:08;;;;;;;3.13;1.90;;;10.30;99.90;;;;;;5028422;28;20479;-70
2021/03/12 12:53:34;;;;;;;3.60;2.40;;;10.30;99.90;;;;;;5028785;28;20213;-69
2021/03/12 12:56:01;;;;;;;1.40;1.30;;;10.30;99.90;;;;;;5027699;28;20474;-70
2021/03/12 12:58:27;;;;;;;1.77;1.57;;;10.40;99.90;;;;;;5027251;28;20514;-70
2021/03/12 13:00:53;;;;;;;3.43;1.63;;;10.40;99.90;;;;;;5028095;28;20460;-73
2021/03/12 13:03:19;;;;;;;8.63;4.20;;;10.40;99.90;;;;;;5011202;28;20538;-71
2021/03/12 13:05:45;;;;;;;14.13;7.83;;;10.30;99.90;;;;;;5011196;28;20580;-73
2021/03/12 13:08:11;;;;;;;12.80;6.00;;;10.20;99.90;;;;;;5010430;28;21041;-72
2021/03/12 13:10:38;;;;;;;11.37;6.67;;;10.10;99.90;;;;;;5011101;28;20739;-69
2021/03/12 13:13:04;;;;;;;9.13;5.00;;;10.20;99.90;;;;;;5019008;28;20597;-71
2021/03/12 13:15:30;;;;;;;11.77;6.00;;;10.20;99.90;;;;;;5002988;28;20452;-71
2021/03/12 13:17:56;;;;;;;21.03;11.00;;;10.30;99.90;;;;;;5010951;28;20464;-71
2021/03/12 13:20:23;;;;;;;11.80;7.13;;;10.30;99.90;;;;;;5009319;28;20456;-71
2021/03/12 13:22:50;;;;;;;4.60;3.47;;;10.30;99.90;;;;;;5015981;28;20602;-71